Time;durP1;ratioP1;P1;durP2;ratioP2;P2;SDS_P1;SDS_P2;PMS_P1;PMS_P2;Temp;Humidity;BMP_temperature;BMP_pressure;BME280_temperature;BME280_humidity;BME280_pressure;Samples;Min_cycle;Max_cycle;Signal;HPM_P1;HPM_P2
2022/05/02 00:00:08;;;;;;;21.65;16.05;;;11.50;99.90;;;;;;5001753;28;20026;-70
2022/05/02 00:02:36;;;;;;;23.63;15.57;;;11.50;99.90;;;;;;5002254;28;20034;-71
2022/05/02 00:05:03;;;;;;;21.98;15.40;;;11.50;99.90;;;;;;5000915;28;20431;-68
2022/05/02 00:07:29;;;;;;;22.27;15.15;;;11.50;99.90;;;;;;5002551;28;20064;-69
2022/05/02 00:09:56;;;;;;;18.10;13.48;;;11.50;99.90;;;;;;5000541;28;20029;-68
2022/05/02 00:12:23;;;;;;;20.65;14.00;;;11.50;99.90;;;;;;4984046;28;20065;-69
2022/05/02 00:14:52;;;;;;;21.45;13.88;;;11.50;99.90;;;;;;5016665;28;20325;-70
2022/05/02 00:17:18;;;;;;;19.02;13.68;;;11.50;99.90;;;;;;5017343;28;20305;-70
2022/05/02 00:19:44;;;;;;;20.20;14.20;;;11.50;99.90;;;;;;4999209;28;20094;-69
2022/05/02 00:22:09;;;;;;;19.63;14.40;;;11.50;99.90;;;;;;4999887;28;20111;-71
2022/05/02 00:24:37;;;;;;;23.33;14.23;;;11.50;99.90;;;;;;5000899;28;20076;-70
2022/05/02 00:27:04;;;;;;;17.98;14.00;;;11.50;99.90;;;;;;4999952;28;20038;-69
2022/05/02 00:29:30;;;;;;;21.23;14.13;;;11.40;99.90;;;;;;4966896;28;20030;-69
2022/05/02 00:31:55;;;;;;;18.67;14.20;;;11.40;99.90;;;;;;4999426;28;20073;-70
2022/05/02 00:34:21;;;;;;;19.58;14.05;;;11.40;99.90;;;;;;4999403;28;20104;-70
2022/05/02 00:36:46;;;;;;;19.95;13.35;;;11.40;99.90;;;;;;5000759;28;20057;-70
2022/05/02 00:39:12;;;;;;;20.33;14.63;;;11.40;99.90;;;;;;4967330;28;20030;-69
2022/05/02 00:41:38;;;;;;;21.85;15.43;;;11.40;99.90;;;;;;5000001;28;20049;-70
2022/05/02 00:44:04;;;;;;;21.25;14.77;;;11.40;99.90;;;;;;4982687;28;20034;-71
2022/05/02 00:46:30;;;;;;;21.40;14.60;;;11.40;99.90;;;;;;5000078;28;20022;-70
2022/05/02 00:48:55;;;;;;;23.08;15.82;;;11.40;99.90;;;;;;5000070;28;20313;-70
2022/05/02 00:51:21;;;;;;;22.70;15.45;;;11.40;99.90;;;;;;4999147;28;20057;-69
2022/05/02 00:53:49;;;;;;;23.75;14.77;;;11.40;99.90;;;;;;4999237;28;20065;-69
2022/05/02 00:56:17;;;;;;;21.35;15.20;;;11.40;99.90;;;;;;4998030;28;20093;-71
2022/05/02 00:58:43;;;;;;;22.55;15.05;;;11.40;99.90;;;;;;5001745;28;20296;-71
2022/05/02 01:01:09;;;;;;;18.48;14.38;;;11.40;99.90;;;;;;5004145;28;20221;-71
2022/05/02 01:03:35;;;;;;;19.35;14.15;;;11.50;99.90;;;;;;5003852;28;20061;-70
2022/05/02 01:08:47;;;;;;;20.50;14.60;;;11.40;99.90;;;;;;5002797;28;20039;-70
2022/05/02 01:11:14;;;;;;;21.05;14.10;;;11.40;99.90;;;;;;5004268;28;20178;-71
2022/05/02 01:13:47;;;;;;;20.45;13.90;;;11.40;99.90;;;;;;5020255;28;20040;-70
2022/05/02 01:16:17;;;;;;;22.85;14.93;;;11.40;99.90;;;;;;4986808;28;20031;-70
2022/05/02 01:18:44;;;;;;;22.73;14.98;;;11.40;99.90;;;;;;5002198;28;20098;-70
2022/05/02 01:21:14;;;;;;;24.00;15.23;;;11.40;99.90;;;;;;5016903;28;20034;-71
2022/05/02 01:23:40;;;;;;;24.42;15.38;;;11.40;99.90;;;;;;5003538;28;20022;-70
2022/05/02 01:26:06;;;;;;;24.15;16.08;;;11.40;99.90;;;;;;5002300;28;20152;-71
2022/05/02 01:28:39;;;;;;;25.42;16.90;;;11.40;99.90;;;;;;5003282;28;20350;-70
2022/05/02 01:31:06;;;;;;;25.75;16.65;;;11.30;99.90;;;;;;5002675;28;20033;-69
2022/05/02 01:33:34;;;;;;;26.63;17.25;;;11.30;99.90;;;;;;4986435;28;20240;-71
2022/05/02 01:36:00;;;;;;;28.27;18.38;;;11.40;99.90;;;;;;5002504;28;20049;-70
2022/05/02 01:38:26;;;;;;;32.25;18.40;;;11.40;99.90;;;;;;5002358;28;20053;-71
2022/05/02 01:40:51;;;;;;;33.53;19.70;;;11.50;99.90;;;;;;4986091;28;20267;-70
2022/05/02 01:43:17;;;;;;;30.25;18.27;;;11.50;99.90;;;;;;4985443;28;20038;-71
2022/05/02 01:45:42;;;;;;;30.77;19.23;;;11.50;99.90;;;;;;5001889;28;20149;-71
2022/05/02 01:48:08;;;;;;;33.88;19.98;;;11.40;99.90;;;;;;5003218;28;20089;-70
2022/05/02 01:50:35;;;;;;;35.65;20.98;;;11.40;99.90;;;;;;5002402;28;20062;-71
2022/05/02 01:53:17;;;;;;;31.38;19.55;;;11.50;99.90;;;;;;4969917;28;20030;-71
2022/05/02 01:55:44;;;;;;;33.30;19.95;;;11.50;99.90;;;;;;5004953;28;20026;-71
2022/05/02 01:58:17;;;;;;;32.17;20.25;;;11.40;99.90;;;;;;5003475;28;20034;-69
2022/05/02 02:00:43;;;;;;;32.20;20.58;;;11.40;99.90;;;;;;5003891;28;20249;-71
2022/05/02 02:03:09;;;;;;;35.92;21.00;;;11.40;99.90;;;;;;5002667;28;20291;-71
2022/05/02 02:05:50;;;;;;;33.83;20.70;;;11.40;99.90;;;;;;5002505;28;20237;-71
2022/05/02 02:08:22;;;;;;;37.13;21.55;;;11.40;99.90;;;;;;4987290;28;20061;-70
2022/05/02 02:10:48;;;;;;;37.17;21.90;;;11.50;99.90;;;;;;5003506;28;20352;-71
2022/05/02 02:13:15;;;;;;;35.22;21.98;;;11.50;99.90;;;;;;5003182;28;20355;-71
2022/05/02 02:15:41;;;;;;;35.05;21.40;;;11.40;99.90;;;;;;5002860;28;20070;-71
2022/05/02 02:18:07;;;;;;;36.60;22.83;;;11.50;99.90;;;;;;5004155;28;20022;-70
2022/05/02 02:20:34;;;;;;;38.63;22.48;;;11.50;99.90;;;;;;5001384;28;20058;-70
2022/05/02 02:23:00;;;;;;;36.83;22.10;;;11.50;99.90;;;;;;5001183;28;20037;-71
2022/05/02 02:25:26;;;;;;;40.63;23.08;;;11.50;99.90;;;;;;5016899;28;20232;-70
2022/05/02 02:27:53;;;;;;;38.13;23.20;;;11.50;99.90;;;;;;5001239;28;20053;-70
2022/05/02 02:30:19;;;;;;;37.95;23.67;;;11.50;99.90;;;;;;5000898;28;20034;-71
2022/05/02 02:32:46;;;;;;;42.63;23.42;;;11.50;99.90;;;;;;5001454;28;20234;-71
2022/05/02 02:35:12;;;;;;;38.47;22.58;;;11.50;99.90;;;;;;5001711;28;20034;-69
2022/05/02 02:37:38;;;;;;;38.78;23.25;;;11.50;99.90;;;;;;4985227;28;20229;-68
2022/05/02 02:40:04;;;;;;;38.50;22.02;;;11.40;99.90;;;;;;5001529;28;20038;-68
2022/05/02 02:42:33;;;;;;;38.55;22.45;;;11.40;99.90;;;;;;5003719;28;20029;-69
2022/05/02 02:44:59;;;;;;;39.70;22.63;;;11.40;99.90;;;;;;4968671;28;20026;-68
2022/05/02 02:47:25;;;;;;;40.13;22.48;;;11.40;99.90;;;;;;4984288;28;20102;-69
2022/05/02 02:49:50;;;;;;;38.92;23.15;;;11.40;99.90;;;;;;5000926;28;20038;-69
2022/05/02 02:52:16;;;;;;;39.55;22.23;;;11.40;99.90;;;;;;5000227;28;20073;-70
2022/05/02 02:54:41;;;;;;;42.15;23.85;;;11.30;99.90;;;;;;5000022;28;20310;-69
2022/05/02 02:57:07;;;;;;;34.60;21.27;;;11.30;99.90;;;;;;5001875;28;20292;-70
2022/05/02 02:59:33;;;;;;;40.92;23.50;;;11.20;99.90;;;;;;4985413;28;20049;-69
2022/05/02 03:01:58;;;;;;;42.08;23.13;;;11.20;99.90;;;;;;5001569;28;20030;-69
2022/05/02 03:07:11;;;;;;;44.55;24.98;;;11.10;99.90;;;;;;4987696;28;20373;-70
2022/05/02 03:09:37;;;;;;;40.90;23.45;;;11.10;99.90;;;;;;5001850;28;20068;-69
2022/05/02 03:12:03;;;;;;;42.17;24.73;;;11.10;99.90;;;;;;4999944;28;20046;-68
2022/05/02 03:14:29;;;;;;;44.90;25.15;;;11.20;99.90;;;;;;5001546;28;20034;-69
2022/05/02 03:16:54;;;;;;;44.88;24.55;;;11.20;99.90;;;;;;5000201;28;20245;-70
2022/05/02 03:19:20;;;;;;;40.08;24.65;;;11.20;99.90;;;;;;4985653;28;20292;-69
2022/05/02 03:21:45;;;;;;;51.80;26.73;;;11.20;99.90;;;;;;4966591;28;20029;-69
2022/05/02 03:24:11;;;;;;;53.75;28.40;;;11.10;99.90;;;;;;4999747;28;20309;-70
2022/05/02 03:26:37;;;;;;;53.85;27.45;;;11.10;99.90;;;;;;5001098;28;20030;-70
2022/05/02 03:29:02;;;;;;;56.03;27.83;;;11.10;99.90;;;;;;4999289;28;20038;-70
2022/05/02 03:31:28;;;;;;;59.20;29.38;;;11.20;99.90;;;;;;5003290;28;20022;-69
2022/05/02 03:33:56;;;;;;;57.50;29.88;;;11.20;99.90;;;;;;5002500;28;20034;-70
2022/05/02 03:36:22;;;;;;;59.40;28.55;;;11.20;99.90;;;;;;4968932;28;20076;-69
2022/05/02 03:38:48;;;;;;;56.75;28.77;;;11.20;99.90;;;;;;4969102;28;20320;-68
2022/05/02 03:41:14;;;;;;;56.33;29.45;;;11.20;99.90;;;;;;5002311;28;20041;-69
2022/05/02 03:43:40;;;;;;;57.35;28.17;;;11.20;99.90;;;;;;5000134;28;20236;-70
2022/05/02 03:46:06;;;;;;;52.33;25.60;;;11.20;99.90;;;;;;5000700;28;20228;-69
2022/05/02 03:48:32;;;;;;;49.03;23.88;;;11.20;99.90;;;;;;5001231;28;20022;-70
2022/05/02 03:50:58;;;;;;;51.92;26.90;;;11.20;99.90;;;;;;5000661;28;20066;-68
2022/05/02 03:53:23;;;;;;;58.85;29.10;;;11.20;99.90;;;;;;5000520;28;20097;-69
2022/05/02 03:55:49;;;;;;;65.85;29.63;;;11.20;99.90;;;;;;4998834;28;20022;-69
2022/05/02 03:58:15;;;;;;;61.60;28.35;;;11.10;99.90;;;;;;4999664;28;20038;-68
2022/05/02 04:00:41;;;;;;;61.75;26.50;;;11.10;99.90;;;;;;4967979;28;20228;-69
2022/05/02 04:03:07;;;;;;;63.45;27.92;;;11.00;99.90;;;;;;5000222;28;20313;-70
2022/05/02 04:05:38;;;;;;;62.08;27.55;;;11.00;99.90;;;;;;5000251;28;20018;-69
2022/05/02 04:08:04;;;;;;;61.60;26.08;;;11.10;99.90;;;;;;5000521;28;20050;-69
2022/05/02 04:10:29;;;;;;;64.30;27.50;;;11.10;99.90;;;;;;5000002;28;20048;-69
2022/05/02 04:12:55;;;;;;;63.88;26.70;;;11.20;99.90;;;;;;4999015;28;20313;-70
2022/05/02 04:15:21;;;;;;;64.90;27.20;;;11.20;99.90;;;;;;4998991;28;20029;-70
2022/05/02 04:17:46;;;;;;;68.13;28.25;;;11.10;99.90;;;;;;5000208;28;20225;-69
2022/05/02 04:20:16;;;;;;;74.18;27.88;;;11.00;99.90;;;;;;4999020;28;20022;-68
2022/05/02 04:22:44;;;;;;;68.45;26.75;;;11.00;99.90;;;;;;4983431;28;20105;-68
2022/05/02 04:25:13;;;;;;;72.80;29.17;;;10.90;99.90;;;;;;5000692;28;20030;-70
2022/05/02 04:27:39;;;;;;;73.13;28.00;;;10.90;99.90;;;;;;4967067;28;20068;-69
2022/05/02 04:30:06;;;;;;;70.10;27.73;;;10.90;99.90;;;;;;4999257;28;20062;-69
2022/05/02 04:32:31;;;;;;;69.82;28.02;;;10.90;99.90;;;;;;4998730;28;20038;-70
2022/05/02 04:34:58;;;;;;;77.22;28.10;;;10.90;99.90;;;;;;5015111;28;20037;-69
2022/05/02 04:37:24;;;;;;;75.15;27.63;;;10.90;99.90;;;;;;4999523;28;20065;-69
2022/05/02 04:39:51;;;;;;;76.80;28.80;;;10.90;99.90;;;;;;4998761;28;20049;-70
2022/05/02 04:42:17;;;;;;;73.90;29.42;;;11.00;99.90;;;;;;4998467;28;20104;-69
2022/05/02 04:44:43;;;;;;;64.68;27.42;;;11.00;99.90;;;;;;5000090;28;20254;-70
2022/05/02 04:47:08;;;;;;;68.60;27.90;;;11.10;99.90;;;;;;4999245;28;20084;-70
2022/05/02 04:49:35;;;;;;;74.03;28.20;;;11.20;99.90;;;;;;5001665;28;20052;-70
2022/05/02 04:52:05;;;;;;;67.80;28.23;;;11.10;99.90;;;;;;4984520;28;20089;-71
2022/05/02 04:54:31;;;;;;;69.65;28.13;;;11.10;99.90;;;;;;4965726;28;20037;-70
2022/05/02 04:56:57;;;;;;;82.78;29.45;;;11.00;99.90;;;;;;4999012;28;20105;-70
2022/05/02 04:59:22;;;;;;;73.25;28.10;;;11.10;99.90;;;;;;4999575;28;20038;-71
2022/05/02 05:01:48;;;;;;;82.30;29.58;;;11.10;99.90;;;;;;4998902;28;20030;-70
2022/05/02 05:04:14;;;;;;;74.70;28.90;;;11.20;99.90;;;;;;5000178;28;20037;-71
2022/05/02 05:06:40;;;;;;;75.05;29.45;;;11.10;99.90;;;;;;4983358;28;20037;-69
2022/05/02 05:09:05;;;;;;;75.40;30.55;;;11.00;99.90;;;;;;5000002;28;20076;-70
2022/05/02 05:12:11;;;;;;;74.05;28.95;;;11.00;99.90;;;;;;5000008;28;20157;-69
2022/05/02 05:18:31;;;;;;;79.35;30.30;;;11.00;99.90;;;;;;4982069;28;20039;-69
2022/05/02 05:21:05;;;;;;;75.15;29.23;;;11.00;99.90;;;;;;4999524;28;20085;-69
2022/05/02 05:24:11;;;;;;;70.15;28.75;;;11.00;99.90;;;;;;4997988;28;20069;-70
2022/05/02 05:27:02;;;;;;;69.32;28.27;;;11.20;99.90;;;;;;4973928;28;20371;-70
2022/05/02 05:29:51;;;;;;;69.85;28.98;;;11.30;99.90;;;;;;4972668;28;20697;-70
2022/05/02 05:32:28;;;;;;;73.70;30.00;;;11.20;99.90;;;;;;4998469;28;20030;-69
2022/05/02 05:35:08;;;;;;;69.07;29.30;;;11.20;99.90;;;;;;4998941;28;20233;-70
2022/05/02 05:37:59;;;;;;;73.13;29.17;;;11.20;99.90;;;;;;5000436;28;20026;-69
2022/05/02 05:40:42;;;;;;;80.03;29.77;;;11.20;99.90;;;;;;4971400;28;20324;-69
2022/05/02 05:43:48;;;;;;;80.70;30.92;;;11.20;99.90;;;;;;4998594;28;20512;-69
2022/05/02 05:46:41;;;;;;;68.70;29.10;;;11.20;99.90;;;;;;4977113;28;20289;-70
2022/05/02 05:49:34;;;;;;;77.93;30.63;;;11.30;99.90;;;;;;5003258;28;20047;-70
2022/05/02 05:52:30;;;;;;;76.32;28.95;;;11.50;99.90;;;;;;5002905;28;20108;-70
2022/05/02 05:55:10;;;;;;;78.20;29.77;;;11.50;99.90;;;;;;4989126;28;20086;-70
2022/05/02 05:57:48;;;;;;;75.57;29.52;;;11.50;99.90;;;;;;5001810;28;20283;-69
2022/05/02 06:00:15;;;;;;;78.07;29.60;;;11.50;99.90;;;;;;5002607;28;20034;-69
2022/05/02 06:03:01;;;;;;;78.07;29.02;;;11.50;99.90;;;;;;5002635;28;20088;-70
2022/05/02 06:05:28;;;;;;;77.15;28.55;;;11.50;99.90;;;;;;5003661;28;20237;-70
2022/05/02 06:07:55;;;;;;;74.88;29.40;;;11.60;99.90;;;;;;5002791;28;20283;-70
2022/05/02 06:10:24;;;;;;;64.85;26.55;;;11.60;99.90;;;;;;5002459;28;20049;-69
2022/05/02 06:12:52;;;;;;;56.00;26.00;;;11.50;99.90;;;;;;5001879;28;20081;-71
2022/05/02 06:20:58;;;;;;;49.00;23.15;;;11.50;99.90;;;;;;5014659;28;20038;-69
2022/05/02 06:23:26;;;;;;;47.38;22.80;;;11.50;99.90;;;;;;5000867;28;20038;-69
2022/05/02 06:25:55;;;;;;;51.92;23.83;;;11.60;99.90;;;;;;5000326;28;20030;-70
2022/05/02 06:28:23;;;;;;;44.10;20.70;;;11.70;99.90;;;;;;5001370;28;20026;-69
2022/05/02 06:30:53;;;;;;;46.95;22.15;;;11.70;99.90;;;;;;5002445;28;20371;-70
2022/05/02 06:33:23;;;;;;;51.33;24.67;;;11.70;99.90;;;;;;5002023;28;20096;-70
2022/05/02 06:36:15;;;;;;;50.13;23.83;;;11.80;99.90;;;;;;5002064;28;20481;-69
2022/05/02 06:39:14;;;;;;;45.40;23.42;;;11.80;99.90;;;;;;4987767;28;20037;-69
2022/05/02 06:42:00;;;;;;;43.00;22.83;;;11.90;99.90;;;;;;5002972;28;20084;-69
2022/05/02 06:45:02;;;;;;;42.33;22.17;;;12.10;99.90;;;;;;5001055;28;20026;-70
2022/05/02 06:47:45;;;;;;;40.58;21.30;;;12.10;99.90;;;;;;4988337;28;20040;-70
2022/05/02 06:50:14;;;;;;;40.05;21.27;;;12.20;99.90;;;;;;5002071;28;20057;-69
2022/05/02 06:53:00;;;;;;;42.30;22.10;;;12.30;99.90;;;;;;5000517;28;20372;-71
2022/05/02 06:55:56;;;;;;;42.47;23.23;;;12.40;99.90;;;;;;5016196;28;20203;-69
2022/05/02 06:58:51;;;;;;;41.45;22.90;;;12.30;99.90;;;;;;4988772;28;20026;-70
2022/05/02 07:01:57;;;;;;;42.95;23.63;;;12.40;99.90;;;;;;5002981;28;20319;-70
2022/05/02 07:04:53;;;;;;;42.58;23.27;;;12.50;99.90;;;;;;4976518;28;20026;-70
2022/05/02 07:07:54;;;;;;;46.47;22.75;;;12.50;99.90;;;;;;4990610;28;20029;-70
2022/05/02 07:10:23;;;;;;;47.20;24.80;;;12.40;99.90;;;;;;4989728;28;20030;-71
2022/05/02 07:13:29;;;;;;;42.15;23.20;;;12.30;99.90;;;;;;5002231;28;20053;-70
2022/05/02 07:16:22;;;;;;;41.25;23.35;;;12.40;99.90;;;;;;4989685;28;20125;-69
2022/05/02 07:19:25;;;;;;;41.95;22.48;;;12.50;99.90;;;;;;4971605;28;20064;-71
2022/05/02 07:22:02;;;;;;;41.67;22.42;;;12.50;99.90;;;;;;4987171;28;20038;-71
2022/05/02 07:24:46;;;;;;;42.47;22.42;;;12.50;99.90;;;;;;5001060;28;20076;-71
2022/05/02 07:27:36;;;;;;;42.72;23.23;;;12.40;99.90;;;;;;4998151;28;20101;-71
2022/05/02 07:30:24;;;;;;;42.60;22.95;;;12.20;99.90;;;;;;4987242;28;20054;-70
2022/05/02 07:32:53;;;;;;;40.22;23.23;;;12.10;99.90;;;;;;4969251;28;20117;-70
2022/05/02 07:35:21;;;;;;;38.78;22.98;;;12.10;99.90;;;;;;4983402;28;20034;-70
2022/05/02 07:37:48;;;;;;;34.47;20.60;;;12.20;99.90;;;;;;4981232;28;20033;-71
2022/05/02 07:40:17;;;;;;;36.05;20.25;;;12.30;99.90;;;;;;4982096;28;20226;-69
2022/05/02 07:42:44;;;;;;;36.22;20.70;;;12.30;99.90;;;;;;4982540;28;20089;-71
2022/05/02 07:45:12;;;;;;;35.40;19.63;;;12.30;99.90;;;;;;4981085;28;20033;-72
2022/05/02 07:47:55;;;;;;;32.03;19.95;;;12.50;99.90;;;;;;4996225;28;20025;-70
2022/05/02 07:50:25;;;;;;;34.22;19.52;;;12.60;99.90;;;;;;5000265;28;20116;-70
2022/05/02 07:52:52;;;;;;;34.08;20.25;;;12.80;99.90;;;;;;4999360;28;20027;-71
2022/05/02 07:55:22;;;;;;;30.48;18.60;;;12.80;99.90;;;;;;5001015;28;20027;-70
2022/05/02 07:57:50;;;;;;;31.90;18.77;;;12.90;99.90;;;;;;4983899;28;20342;-69
2022/05/02 08:00:16;;;;;;;33.78;19.30;;;12.90;99.90;;;;;;4999682;28;20217;-68
2022/05/02 08:02:42;;;;;;;33.15;19.08;;;12.90;99.90;;;;;;5003071;28;20014;-70
2022/05/02 08:05:09;;;;;;;28.13;17.25;;;12.90;99.90;;;;;;4999115;28;20225;-70
2022/05/02 08:07:41;;;;;;;29.20;18.05;;;13.00;99.90;;;;;;4998355;28;20037;-70
2022/05/02 08:10:47;;;;;;;28.30;17.10;;;13.10;99.90;;;;;;4985346;28;20327;-70
2022/05/02 08:13:42;;;;;;;31.25;18.95;;;13.10;99.90;;;;;;4976836;28;20066;-70
2022/05/02 08:16:19;;;;;;;29.52;18.15;;;13.20;99.90;;;;;;4973647;28;20042;-69
2022/05/02 08:19:24;;;;;;;32.42;19.52;;;13.10;99.90;;;;;;4987074;28;20053;-69
2022/05/02 08:28:01;;;;;;;29.75;17.80;;;13.10;99.90;;;;;;4998363;28;20026;-70
2022/05/02 08:30:31;;;;;;;29.15;17.92;;;13.20;99.90;;;;;;4999036;28;20029;-70
2022/05/02 08:33:05;;;;;;;30.15;18.20;;;13.30;99.90;;;;;;5001562;28;20037;-71
2022/05/02 08:35:56;;;;;;;29.67;18.08;;;13.50;99.90;;;;;;5001782;28;20030;-69
2022/05/02 08:39:01;;;;;;;27.48;16.98;;;13.50;99.90;;;;;;4986552;28;20049;-70
2022/05/02 08:42:07;;;;;;;28.35;18.30;;;13.30;99.90;;;;;;4972057;28;20296;-72
2022/05/02 08:45:00;;;;;;;28.58;17.45;;;13.20;99.90;;;;;;4976245;28;20101;-70
2022/05/02 08:47:59;;;;;;;34.00;18.63;;;13.30;99.90;;;;;;4999027;28;20092;-69
2022/05/02 08:50:33;;;;;;;32.97;19.80;;;13.20;99.90;;;;;;4985207;28;20568;-69
2022/05/02 08:53:38;;;;;;;31.98;19.58;;;13.40;99.90;;;;;;4999163;28;20041;-70
2022/05/02 08:56:32;;;;;;;32.92;18.65;;;13.50;99.90;;;;;;4988253;28;20105;-69
2022/05/02 08:59:28;;;;;;;27.38;17.00;;;13.60;99.90;;;;;;4987226;28;20395;-70
2022/05/02 09:02:33;;;;;;;29.23;18.30;;;13.60;99.90;;;;;;4970891;28;20030;-70
2022/05/02 09:05:29;;;;;;;25.27;16.05;;;13.60;99.90;;;;;;4998663;28;20026;-70
2022/05/02 09:08:35;;;;;;;25.92;16.30;;;13.60;99.90;;;;;;4998956;28;20280;-69
2022/05/02 09:11:40;;;;;;;28.55;17.67;;;13.70;99.90;;;;;;4974569;28;20034;-69
2022/05/02 09:14:39;;;;;;;27.02;16.67;;;13.70;99.90;;;;;;4973828;28;20049;-71
2022/05/02 09:17:30;;;;;;;23.38;16.75;;;13.90;99.90;;;;;;4999312;28;20037;-69
2022/05/02 09:20:36;;;;;;;28.05;17.27;;;14.20;99.90;;;;;;5002518;28;20041;-70
2022/05/02 09:23:42;;;;;;;26.10;16.27;;;14.40;99.90;;;;;;4979223;28;20038;-69
2022/05/02 09:26:39;;;;;;;25.67;15.63;;;14.40;99.90;;;;;;4977700;28;20308;-70
2022/05/02 09:29:44;;;;;;;25.45;15.63;;;14.50;99.90;;;;;;5005608;28;20056;-72
2022/05/02 09:32:44;;;;;;;23.08;14.40;;;14.60;99.20;;;;;;5002218;28;20045;-71
2022/05/02 09:35:31;;;;;;;19.52;12.80;;;15.00;99.40;;;;;;4991802;28;20062;-71
2022/05/02 09:37:59;;;;;;;19.55;13.32;;;15.10;97.90;;;;;;4988043;28;20026;-72
2022/05/02 09:40:41;;;;;;;20.83;12.93;;;15.20;97.40;;;;;;5002689;28;20093;-70
2022/05/02 09:50:24;;;;;;;23.95;14.85;;;15.40;97.10;;;;;;4992642;28;20237;-70
2022/05/02 09:53:24;;;;;;;22.77;14.88;;;15.40;97.40;;;;;;4991615;28;20070;-69
2022/05/02 09:58:53;;;;;;;22.58;14.25;;;15.40;97.20;;;;;;4975448;28;20337;-71
2022/05/02 10:01:28;;;;;;;20.50;13.27;;;15.80;96.70;;;;;;5004150;28;20060;-72
2022/05/02 10:04:33;;;;;;;20.42;12.88;;;16.00;96.30;;;;;;5019970;28;20313;-72
2022/05/02 10:07:10;;;;;;;18.67;12.63;;;15.90;96.30;;;;;;4977975;28;20313;-70
2022/05/02 10:10:02;;;;;;;18.45;12.75;;;15.80;96.30;;;;;;5002082;28;20037;-71
2022/05/02 10:13:04;;;;;;;19.08;12.32;;;16.00;95.70;;;;;;4976081;28;20060;-71
2022/05/02 10:16:05;;;;;;;19.20;12.82;;;16.10;95.90;;;;;;5003460;28;20117;-71
2022/05/02 10:19:02;;;;;;;18.73;12.63;;;16.10;95.70;;;;;;5004849;28;20040;-71
2022/05/02 10:22:08;;;;;;;20.83;13.30;;;16.20;95.20;;;;;;5009972;28;20220;-70
2022/05/02 10:25:13;;;;;;;17.42;11.43;;;16.30;95.40;;;;;;4973491;28;20098;-70
2022/05/02 10:28:10;;;;;;;18.20;12.13;;;16.30;94.90;;;;;;4983016;28;20030;-70
2022/05/02 10:31:25;;;;;;;21.98;11.82;;;16.60;94.40;;;;;;4984091;28;20034;-70
2022/05/02 10:33:52;;;;;;;19.00;11.88;;;16.50;94.00;;;;;;5004224;28;20038;-71
2022/05/02 10:36:23;;;;;;;18.65;12.43;;;16.30;93.90;;;;;;4999157;28;20344;-72
2022/05/02 10:39:02;;;;;;;18.33;12.43;;;16.30;94.30;;;;;;4998036;28;20053;-71
2022/05/02 10:41:44;;;;;;;17.38;12.07;;;16.10;95.00;;;;;;4984009;28;20047;-72
2022/05/02 10:44:14;;;;;;;16.98;11.07;;;16.10;95.00;;;;;;4998230;28;20119;-70
2022/05/02 10:46:43;;;;;;;19.52;12.25;;;16.40;94.60;;;;;;4988738;28;20030;-71
2022/05/02 10:49:29;;;;;;;19.35;12.10;;;16.40;94.20;;;;;;4987035;28;20046;-70
2022/05/02 10:52:08;;;;;;;17.38;12.05;;;16.50;94.20;;;;;;5007130;28;20282;-70
2022/05/02 10:54:47;;;;;;;17.40;11.70;;;16.40;94.30;;;;;;5006287;28;20056;-70
2022/05/02 10:57:40;;;;;;;16.08;12.20;;;16.30;94.60;;;;;;5007570;28;20034;-74
2022/05/02 11:00:10;;;;;;;16.77;11.57;;;16.40;94.20;;;;;;5009600;28;20022;-71
2022/05/02 11:03:15;;;;;;;17.90;11.45;;;16.40;94.40;;;;;;5013019;28;20053;-71
2022/05/02 11:06:21;;;;;;;17.77;11.82;;;16.20;94.40;;;;;;4988081;28;20072;-71
2022/05/02 11:08:53;;;;;;;14.55;10.18;;;16.50;94.60;;;;;;4987656;28;20033;-70
2022/05/02 11:11:28;;;;;;;16.40;11.25;;;16.50;93.80;;;;;;5029272;28;20038;-70
2022/05/02 11:14:05;;;;;;;15.45;10.95;;;16.60;93.40;;;;;;5013163;28;20018;-70
2022/05/02 11:16:49;;;;;;;17.23;11.07;;;16.70;93.90;;;;;;5011278;28;20042;-70
2022/05/02 11:22:39;;;;;;;15.13;10.52;;;16.70;93.60;;;;;;5001546;28;20030;-71
2022/05/02 11:25:22;;;;;;;15.43;10.32;;;16.60;93.10;;;;;;5000832;28;20030;-71
2022/05/02 11:28:27;;;;;;;14.57;10.88;;;16.70;93.00;;;;;;4987217;28;20018;-71
2022/05/02 11:31:33;;;;;;;15.88;10.55;;;16.60;93.30;;;;;;4992531;28;20439;-73
2022/05/02 11:34:25;;;;;;;16.60;10.73;;;16.60;93.30;;;;;;4992196;28;20025;-71
2022/05/02 11:36:54;;;;;;;18.15;10.38;;;16.50;93.40;;;;;;5002213;28;20077;-70
2022/05/02 11:39:26;;;;;;;13.98;9.98;;;16.10;93.80;;;;;;5000510;28;20034;-72
2022/05/02 11:41:56;;;;;;;14.98;9.98;;;16.20;94.00;;;;;;5000514;28;20069;-71
2022/05/02 11:44:32;;;;;;;14.53;9.93;;;16.50;93.80;;;;;;4987039;28;20025;-71
2022/05/02 11:47:15;;;;;;;16.17;10.48;;;16.50;93.40;;;;;;5001126;28;20026;-69
2022/05/02 11:50:03;;;;;;;14.57;10.13;;;16.40;93.30;;;;;;4985289;28;20046;-71
2022/05/02 11:52:31;;;;;;;13.60;9.70;;;16.20;93.30;;;;;;4985149;28;20343;-72
2022/05/02 11:54:58;;;;;;;14.30;10.23;;;16.20;94.00;;;;;;4983670;28;20406;-71
2022/05/02 11:57:41;;;;;;;13.05;9.82;;;16.00;93.40;;;;;;5000677;28;20081;-72
2022/05/02 12:00:14;;;;;;;14.52;10.05;;;16.10;93.80;;;;;;5002356;28;20030;-70
2022/05/02 12:02:54;;;;;;;15.60;9.98;;;16.10;93.80;;;;;;4985684;28;20029;-70
2022/05/02 12:05:31;;;;;;;14.13;9.88;;;16.20;93.70;;;;;;5017889;28;20065;-70
2022/05/02 12:08:00;;;;;;;14.68;10.05;;;16.00;94.20;;;;;;4999935;28;20026;-70
2022/05/02 12:10:47;;;;;;;14.30;9.70;;;16.00;93.70;;;;;;4983650;28;20038;-70
2022/05/02 12:13:20;;;;;;;14.02;9.13;;;16.20;93.70;;;;;;5000457;28;20033;-71
2022/05/02 12:16:00;;;;;;;12.02;8.27;;;16.30;93.60;;;;;;4999842;28;20037;-71
2022/05/02 12:18:47;;;;;;;12.43;8.65;;;16.30;92.70;;;;;;4999056;28;20034;-70
2022/05/02 12:21:41;;;;;;;14.10;9.80;;;16.20;92.90;;;;;;5004337;28;20030;-70
2022/05/02 12:24:09;;;;;;;13.13;9.13;;;16.20;93.70;;;;;;4985260;28;20162;-70
2022/05/02 12:26:45;;;;;;;13.10;9.35;;;16.50;93.00;;;;;;4981515;28;20038;-71
2022/05/02 12:29:17;;;;;;;13.88;9.52;;;16.40;92.80;;;;;;4980445;28;20046;-72
2022/05/02 12:31:43;;;;;;;11.90;8.40;;;16.30;92.90;;;;;;4982731;28;20086;-70
2022/05/02 12:34:12;;;;;;;16.33;10.60;;;16.40;92.90;;;;;;4981541;28;20034;-71
2022/05/02 12:36:51;;;;;;;14.07;9.57;;;16.30;93.00;;;;;;4982592;28;20340;-70
2022/05/02 12:39:23;;;;;;;15.82;10.00;;;16.10;93.50;;;;;;4979628;28;20105;-70
2022/05/02 12:41:54;;;;;;;16.33;10.82;;;16.00;93.50;;;;;;4980544;28;20031;-69
2022/05/02 12:44:28;;;;;;;13.20;9.05;;;16.00;93.80;;;;;;4981570;28;20306;-71
2022/05/02 12:47:03;;;;;;;14.32;9.18;;;15.90;93.40;;;;;;4989974;28;20270;-68
2022/05/02 12:49:38;;;;;;;13.82;10.13;;;15.70;93.10;;;;;;5017264;28;20030;-69
2022/05/02 12:52:05;;;;;;;17.30;10.63;;;15.30;93.90;;;;;;5002085;28;20122;-71
2022/05/02 12:54:33;;;;;;;13.95;10.13;;;15.20;94.70;;;;;;4989436;28;20295;-71
2022/05/02 13:02:41;;;;;;;16.92;11.73;;;15.20;95.70;;;;;;5006790;28;20026;-69
2022/05/02 13:05:17;;;;;;;16.70;10.90;;;15.30;95.30;;;;;;5005828;28;20045;-70
2022/05/02 13:07:53;;;;;;;16.45;11.35;;;15.30;95.60;;;;;;4992489;28;20124;-71
2022/05/02 13:10:24;;;;;;;16.45;10.75;;;15.40;95.40;;;;;;5006307;28;20038;-71
2022/05/02 13:13:07;;;;;;;16.90;11.32;;;15.40;95.30;;;;;;5007356;28;20034;-70
2022/05/02 13:15:40;;;;;;;17.13;11.02;;;15.50;95.20;;;;;;5008041;28;20098;-70
2022/05/02 13:18:09;;;;;;;17.42;10.98;;;15.70;94.50;;;;;;5005886;28;20033;-71
2022/05/02 13:20:36;;;;;;;17.75;11.07;;;15.70;94.50;;;;;;5007248;28;20033;-70
2022/05/02 13:23:13;;;;;;;17.42;11.68;;;15.90;94.30;;;;;;5007305;28;20105;-70
2022/05/02 13:26:26;;;;;;;18.17;11.30;;;16.20;93.90;;;;;;4986627;28;20038;-73
2022/05/02 13:29:29;;;;;;;18.13;11.38;;;16.30;93.20;;;;;;4986649;28;20022;-72
2022/05/02 13:32:01;;;;;;;19.27;12.32;;;16.60;93.50;;;;;;4986111;28;20037;-72
2022/05/02 13:35:00;;;;;;;17.45;12.50;;;16.60;92.80;;;;;;5002385;28;20018;-71
2022/05/02 13:37:51;;;;;;;21.98;13.77;;;16.30;93.60;;;;;;5000316;28;20146;-71
2022/05/02 13:43:13;;;;;;;17.67;12.25;;;16.60;93.10;;;;;;5001062;28;20030;-70
2022/05/02 13:45:54;;;;;;;19.30;12.32;;;16.80;92.90;;;;;;5002951;28;20440;-70
2022/05/02 13:48:41;;;;;;;16.85;10.98;;;16.80;92.80;;;;;;5021049;28;20229;-71
2022/05/02 13:51:29;;;;;;;14.05;10.13;;;16.90;92.00;;;;;;4992460;28;20066;-72
2022/05/02 13:54:02;;;;;;;16.88;10.50;;;16.70;92.00;;;;;;5006213;28;20033;-71
2022/05/02 13:56:53;;;;;;;14.50;9.90;;;16.60;91.70;;;;;;5005179;28;20022;-71